createdAt,value
2023-03-24T00:01:44.275Z,61.03
2023-03-24T00:04:16.655Z,61.09
2023-03-24T00:06:56.917Z,60.98
2023-03-24T00:09:25.638Z,61.06
2023-03-24T00:11:59.601Z,61.08
2023-03-24T00:14:30.215Z,60.91
2023-03-24T00:17:18.589Z,60.89
2023-03-24T00:19:48.522Z,61.06
2023-03-24T00:22:22.041Z,61.02
2023-03-24T00:24:50.626Z,61.05
2023-03-24T00:27:23.788Z,61.00
2023-03-24T00:29:59.128Z,61.08
2023-03-24T00:32:46.458Z,61.07
2023-03-24T00:35:18.789Z,61.08
2023-03-24T00:37:51.629Z,61.13
2023-03-24T00:40:24.063Z,61.15
2023-03-24T00:43:03.312Z,61.09
2023-03-24T00:45:46.062Z,61.14
2023-03-24T00:48:28.232Z,61.12
2023-03-24T00:51:02.654Z,61.14
2023-03-24T00:53:37.600Z,61.23
2023-03-24T00:56:14.248Z,61.28
2023-03-24T00:58:49.944Z,61.24
2023-03-24T01:01:32.908Z,61.18
2023-03-24T01:04:10.240Z,61.23
2023-03-24T01:06:47.316Z,61.29
2023-03-24T01:09:21.305Z,61.28
2023-03-24T01:11:56.922Z,61.34
2023-03-24T01:14:31.354Z,61.34
2023-03-24T01:17:00.655Z,61.28
2023-03-24T01:19:32.854Z,61.26
2023-03-24T01:22:09.888Z,61.25
2023-03-24T01:24:52.644Z,61.26
2023-03-24T01:27:25.751Z,61.12
2023-03-24T01:30:04.133Z,61.25
2023-03-24T01:32:37.601Z,61.37
2023-03-24T01:35:12.231Z,61.36
2023-03-24T01:37:47.105Z,61.43
2023-03-24T01:40:29.698Z,61.60
2023-03-24T01:43:11.583Z,61.82
2023-03-24T01:46:18.125Z,61.84
2023-03-24T01:49:07.321Z,62.00
2023-03-24T01:51:45.143Z,62.20
2023-03-24T01:54:33.396Z,62.43
2023-03-24T01:57:23.373Z,62.56
2023-03-24T02:00:07.248Z,62.60
2023-03-24T02:03:18.336Z,62.62
2023-03-24T02:06:02.026Z,62.56
2023-03-24T02:08:50.907Z,62.36
2023-03-24T02:11:28.137Z,62.32
2023-03-24T02:14:08.078Z,62.55
2023-03-24T02:17:18.615Z,62.50
2023-03-24T02:20:40.589Z,62.89
2023-03-24T02:23:45.739Z,63.27
2023-03-24T02:26:48.071Z,63.24
2023-03-24T02:30:10.083Z,63.21
2023-03-24T02:33:13.712Z,63.36
2023-03-24T02:36:34.739Z,63.74
2023-03-24T02:39:37.981Z,63.83
2023-03-24T02:42:42.574Z,63.85
2023-03-24T02:45:35.363Z,64.11
2023-03-24T02:48:42.694Z,64.27
2023-03-24T02:51:53.232Z,64.28
2023-03-24T02:55:11.491Z,64.67
2023-03-24T02:57:54.878Z,64.88
2023-03-24T03:01:36.139Z,64.76
2023-03-24T03:04:42.620Z,64.75
2023-03-24T03:07:24.401Z,64.54
2023-03-24T03:13:02.215Z,64.52
2023-03-24T03:15:39.951Z,64.47
2023-03-24T03:18:25.164Z,64.38
2023-03-24T03:21:13.653Z,64.31
2023-03-24T03:23:51.136Z,64.31
2023-03-24T03:26:37.937Z,64.63
2023-03-24T03:29:26.623Z,64.85
2023-03-24T03:32:20.600Z,65.18
2023-03-24T03:35:16.244Z,65.28
2023-03-24T03:38:00.351Z,65.43
2023-03-24T03:41:07.564Z,65.59
2023-03-24T03:43:38.325Z,65.75
2023-03-24T03:46:10.624Z,65.80
2023-03-24T03:48:45.851Z,65.93
2023-03-24T03:51:21.983Z,66.13
2023-03-24T03:54:13.493Z,66.20
2023-03-24T03:56:53.951Z,66.32
2023-03-24T03:59:35.138Z,66.36
2023-03-24T04:02:58.686Z,66.32
2023-03-24T04:05:50.371Z,66.18
2023-03-24T04:08:50.367Z,66.15
2023-03-24T04:12:21.124Z,66.13
2023-03-24T04:15:34.814Z,65.90
2023-03-24T04:18:49.437Z,65.76
2023-03-24T04:21:53.611Z,65.71
2023-03-24T04:24:54.372Z,65.92
2023-03-24T04:27:56.514Z,66.00
2023-03-24T04:30:34.351Z,66.13
2023-03-24T04:33:57.910Z,66.22
2023-03-24T04:36:50.133Z,66.32
2023-03-24T04:39:44.862Z,66.22
2023-03-24T04:42:36.081Z,66.35
2023-03-24T04:45:09.500Z,66.47
2023-03-24T04:48:15.343Z,66.53
2023-03-24T04:51:18.436Z,66.57
2023-03-24T04:53:59.993Z,66.65
2023-03-24T04:56:37.940Z,66.64
2023-03-24T04:59:17.774Z,66.88
2023-03-24T05:01:52.431Z,66.84
2023-03-24T05:04:37.785Z,66.58
2023-03-24T05:07:15.038Z,66.61
2023-03-24T05:09:51.793Z,66.76
2023-03-24T05:12:40.397Z,66.77
2023-03-24T05:15:34.783Z,66.75
2023-03-24T05:18:17.019Z,66.81
2023-03-24T05:20:50.310Z,66.94
2023-03-24T05:23:21.880Z,66.86
2023-03-24T05:25:58.353Z,66.95
2023-03-24T05:28:28.046Z,67.07
2023-03-24T05:31:09.980Z,66.86
2023-03-24T05:33:53.303Z,66.96
2023-03-24T05:36:30.119Z,67.26
2023-03-24T05:39:05.117Z,67.45
2023-03-24T05:41:47.529Z,68.09
2023-03-24T05:44:21.551Z,68.11
2023-03-24T05:47:07.013Z,68.22
2023-03-24T05:49:47.808Z,68.62
2023-03-24T05:52:21.391Z,68.95
2023-03-24T05:55:03.841Z,69.22
2023-03-24T05:57:46.709Z,69.37
2023-03-24T06:00:24.342Z,69.49
2023-03-24T06:03:05.548Z,69.70
2023-03-24T06:05:47.765Z,69.59
2023-03-24T06:08:41.278Z,69.54
2023-03-24T06:11:25.383Z,69.65
2023-03-24T06:14:18.727Z,69.70
2023-03-24T06:17:08.357Z,69.92
2023-03-24T06:19:49.286Z,69.57
2023-03-24T06:22:34.304Z,69.50
2023-03-24T06:25:20.655Z,69.43
2023-03-24T06:28:14.772Z,69.42
2023-03-24T06:31:25.963Z,69.41
2023-03-24T06:33:58.295Z,69.29
2023-03-24T06:36:54.018Z,69.05
2023-03-24T06:39:56.248Z,68.89
2023-03-24T06:42:33.611Z,69.03
2023-03-24T06:45:13.495Z,69.06
2023-03-24T06:47:59.265Z,68.94
2023-03-24T06:50:41.159Z,68.82
2023-03-24T06:53:19.470Z,68.60
2023-03-24T06:55:54.860Z,68.25
2023-03-24T06:58:43.932Z,68.04
2023-03-24T07:01:30.166Z,67.69
2023-03-24T07:04:25.151Z,67.20
2023-03-24T07:07:19.089Z,67.08
2023-03-24T07:09:47.609Z,66.99
2023-03-24T07:12:16.678Z,66.81
2023-03-24T07:14:44.932Z,66.77
2023-03-24T07:17:15.767Z,66.78
2023-03-24T07:20:07.988Z,66.68
2023-03-24T07:22:42.410Z,67.22
2023-03-24T07:25:29.150Z,67.69
2023-03-24T07:28:07.732Z,67.32
2023-03-24T07:30:40.903Z,65.94
2023-03-24T07:33:11.468Z,64.47
2023-03-24T07:35:40.452Z,63.44
2023-03-24T07:38:09.717Z,62.85
2023-03-24T07:40:43.498Z,62.78
2023-03-24T07:43:24.816Z,62.46
2023-03-24T07:46:24.681Z,62.06
2023-03-24T07:49:24.068Z,61.40
2023-03-24T07:52:13.802Z,60.31
2023-03-24T07:54:59.973Z,59.03
2023-03-24T07:57:55.256Z,58.52
2023-03-24T08:00:34.262Z,57.49
2023-03-24T08:03:38.366Z,57.12
2023-03-24T08:06:38.566Z,57.00
2023-03-24T08:09:16.668Z,56.92
2023-03-24T08:12:04.346Z,57.00
2023-03-24T08:14:57.823Z,57.00
2023-03-24T08:17:48.593Z,57.15
2023-03-24T08:20:24.097Z,56.97
2023-03-24T08:23:49.978Z,57.21
2023-03-24T08:26:06.789Z,56.42
2023-03-24T08:28:39.217Z,55.04
2023-03-24T08:31:09.231Z,54.26
2023-03-24T08:33:41.584Z,54.21
2023-03-24T08:36:10.342Z,54.43
2023-03-24T08:38:45.735Z,54.50
2023-03-24T08:41:19.934Z,54.15
2023-03-24T08:43:48.672Z,54.18
2023-03-24T08:46:17.353Z,53.82
2023-03-24T08:48:50.936Z,54.13
2023-03-24T08:51:21.931Z,54.19
2023-03-24T08:53:53.396Z,54.27
2023-03-24T08:56:22.390Z,54.42
2023-03-24T08:58:53.256Z,54.57
2023-03-24T09:01:24.299Z,54.67
2023-03-24T09:03:52.439Z,54.53
2023-03-24T09:06:20.308Z,54.84
2023-03-24T09:08:51.352Z,55.24
2023-03-24T09:11:21.575Z,55.74
2023-03-24T09:13:49.577Z,56.07
2023-03-24T09:16:18.958Z,56.10
2023-03-24T09:18:47.174Z,56.31
2023-03-24T09:21:15.644Z,56.24
2023-03-24T09:23:43.896Z,55.79
2023-03-24T09:26:11.979Z,55.29
2023-03-24T09:28:43.252Z,54.15
2023-03-24T09:31:18.188Z,53.69
2023-03-24T09:33:57.798Z,54.18
2023-03-24T09:36:31.083Z,54.78
2023-03-24T09:39:04.193Z,54.51
2023-03-24T09:41:34.468Z,53.36
2023-03-24T09:44:12.448Z,51.87
2023-03-24T09:47:28.602Z,52.66
2023-03-24T09:50:33.429Z,51.75
2023-03-24T09:53:43.676Z,50.98
2023-03-24T09:56:24.667Z,49.70
2023-03-24T09:59:22.704Z,48.88
2023-03-24T10:01:53.944Z,49.29
2023-03-24T10:04:27.120Z,48.73
2023-03-24T10:07:27.759Z,47.43
2023-03-24T10:10:01.876Z,47.01
2023-03-24T10:12:48.098Z,46.10
2023-03-24T10:16:07.625Z,45.45
2023-03-24T10:19:17.754Z,45.10
2023-03-24T10:22:29.458Z,43.87
2023-03-24T10:25:38.186Z,43.27
2023-03-24T10:28:59.302Z,43.63
2023-03-24T10:31:42.645Z,43.37
2023-03-24T10:34:13.728Z,43.51
2023-03-24T10:37:09.188Z,43.46
2023-03-24T10:39:49.845Z,43.76
2023-03-24T10:42:35.741Z,43.77
2023-03-24T10:45:51.123Z,43.88
2023-03-24T10:48:43.685Z,43.62
2023-03-24T10:51:34.832Z,43.35
2023-03-24T10:54:33.032Z,43.31
2023-03-24T10:57:18.648Z,43.45
2023-03-24T11:00:29.277Z,43.15
2023-03-24T11:03:17.820Z,43.50
2023-03-24T11:05:48.832Z,43.51
2023-03-24T11:08:39.853Z,43.59
2023-03-24T11:11:33.595Z,43.52
2023-03-24T11:14:23.586Z,43.41
2023-03-24T11:17:14.968Z,43.42
2023-03-24T11:20:06.090Z,43.50
2023-03-24T11:22:48.600Z,43.73
2023-03-24T11:25:21.260Z,43.63
2023-03-24T11:28:04.946Z,43.59
2023-03-24T11:31:06.122Z,43.93
2023-03-24T11:34:06.478Z,44.32
2023-03-24T11:37:01.641Z,44.33
2023-03-24T11:39:37.598Z,44.64
2023-03-24T11:42:31.688Z,45.04
2023-03-24T11:45:37.780Z,45.19
2023-03-24T11:48:51.226Z,45.25
2023-03-24T11:51:44.721Z,45.34
2023-03-24T11:54:36.633Z,45.55
2023-03-24T11:57:45.203Z,45.86
2023-03-24T12:01:13.787Z,46.07
2023-03-24T12:04:19.693Z,45.98
2023-03-24T12:07:28.937Z,45.98
2023-03-24T12:10:38.965Z,46.11
2023-03-24T12:13:33.122Z,45.89
2023-03-24T12:19:26.213Z,45.68
2023-03-24T12:22:18.905Z,45.55
2023-03-24T12:25:40.074Z,45.70
2023-03-24T12:28:24.957Z,45.76
2023-03-24T12:31:48.902Z,45.86
2023-03-24T12:34:55.276Z,45.88
2023-03-24T12:37:59.434Z,45.94
2023-03-24T12:41:14.025Z,46.16
2023-03-24T12:44:39.475Z,46.17
2023-03-24T12:47:51.953Z,46.42
2023-03-24T12:50:42.677Z,46.59
2023-03-24T12:54:04.981Z,46.71
2023-03-24T12:56:45.759Z,46.84
2023-03-24T12:59:32.822Z,47.10
2023-03-24T13:02:34.042Z,47.21
2023-03-24T13:05:16.156Z,47.47
2023-03-24T13:07:47.584Z,47.49
2023-03-24T13:10:34.167Z,47.60
2023-03-24T13:13:23.087Z,47.75
2023-03-24T13:16:05.190Z,47.94
2023-03-24T13:19:02.961Z,48.13
2023-03-24T13:21:37.523Z,48.06
2023-03-24T13:24:15.989Z,48.11
2023-03-24T13:27:11.601Z,48.17
2023-03-24T13:30:11.449Z,48.16
2023-03-24T13:32:57.971Z,48.13
2023-03-24T13:36:09.470Z,47.88
2023-03-24T13:38:53.811Z,47.50
2023-03-24T13:41:32.075Z,47.26
2023-03-24T13:44:20.926Z,47.26
2023-03-24T13:47:21.367Z,47.17
2023-03-24T13:50:17.302Z,47.16
2023-03-24T13:52:50.344Z,47.18
2023-03-24T13:55:39.649Z,47.26
2023-03-24T13:58:29.087Z,47.32
2023-03-24T14:01:34.323Z,47.45
2023-03-24T14:05:05.558Z,47.38
2023-03-24T14:07:46.776Z,47.53
2023-03-24T14:10:23.813Z,47.62
2023-03-24T14:13:07.852Z,47.65
2023-03-24T14:15:58.005Z,47.74
2023-03-24T14:18:27.798Z,47.92
2023-03-24T14:21:09.608Z,48.03
2023-03-24T14:24:04.292Z,48.24
2023-03-24T14:26:56.740Z,48.45
2023-03-24T14:29:53.916Z,48.61
2023-03-24T14:32:32.617Z,48.70
2023-03-24T14:35:10.482Z,48.89
2023-03-24T14:37:56.964Z,49.01
2023-03-24T14:41:07.291Z,49.20
2023-03-24T14:43:49.072Z,49.35
2023-03-24T14:47:02.417Z,49.34
2023-03-24T14:49:48.327Z,49.46
2023-03-24T14:52:31.172Z,49.55
2023-03-24T14:55:24.869Z,49.60
2023-03-24T14:58:03.627Z,49.67
2023-03-24T15:04:04.973Z,49.77
2023-03-24T15:06:49.063Z,50.01
2023-03-24T15:09:28.434Z,50.07
2023-03-24T15:12:24.716Z,50.40
2023-03-24T15:15:06.282Z,50.72
2023-03-24T15:17:49.140Z,50.75
2023-03-24T15:20:37.755Z,50.96
2023-03-24T15:23:29.874Z,51.10
2023-03-24T15:26:11.739Z,51.25
2023-03-24T15:28:45.282Z,51.24
2023-03-24T15:31:17.762Z,51.29
2023-03-24T15:33:54.741Z,51.35
2023-03-24T15:37:01.878Z,51.45
2023-03-24T15:40:15.648Z,51.46
2023-03-24T15:43:11.064Z,51.70
2023-03-24T15:46:11.797Z,51.73
2023-03-24T15:49:04.357Z,51.77
2023-03-24T15:52:15.873Z,51.83
2023-03-24T15:55:08.867Z,52.00
2023-03-24T15:57:53.991Z,52.08
2023-03-24T16:00:45.663Z,52.10
2023-03-24T16:03:19.322Z,52.17
2023-03-24T16:06:08.821Z,52.23
2023-03-24T16:08:45.497Z,52.30
2023-03-24T16:11:37.252Z,52.34
2023-03-24T16:14:43.976Z,52.35
2023-03-24T16:17:23.371Z,52.55
2023-03-24T16:20:00.433Z,52.44
2023-03-24T16:22:38.294Z,52.33
2023-03-24T16:25:09.034Z,52.40
2023-03-24T16:27:45.665Z,52.58
2023-03-24T16:30:37.317Z,52.58
2023-03-24T16:33:22.615Z,52.52
2023-03-24T16:35:57.251Z,52.67
2023-03-24T16:38:31.968Z,52.88
2023-03-24T16:41:20.851Z,53.00
2023-03-24T16:44:00.477Z,52.98
2023-03-24T16:46:55.990Z,53.03
2023-03-24T16:49:50.642Z,53.40
2023-03-24T16:52:35.364Z,53.51
2023-03-24T16:55:26.481Z,53.42
2023-03-24T16:58:03.768Z,53.31
2023-03-24T17:00:47.712Z,53.43
2023-03-24T17:03:32.041Z,53.78
2023-03-24T17:06:13.953Z,53.95
2023-03-24T17:08:45.051Z,54.09
2023-03-24T17:11:39.768Z,54.15
2023-03-24T17:14:14.428Z,54.34
2023-03-24T17:16:50.337Z,54.41
2023-03-24T17:19:25.514Z,54.53
2023-03-24T17:22:09.952Z,54.58
2023-03-24T17:24:50.768Z,54.64
2023-03-24T17:27:28.683Z,54.67
2023-03-24T17:29:58.739Z,54.71
2023-03-24T17:32:36.194Z,54.81
2023-03-24T17:35:24.931Z,54.88
2023-03-24T17:37:58.568Z,55.04
2023-03-24T17:40:30.549Z,55.06
2023-03-24T17:43:00.120Z,55.19
2023-03-24T17:45:36.626Z,55.23
2023-03-24T17:48:07.527Z,55.19
2023-03-24T17:50:40.891Z,55.04
2023-03-24T17:53:28.080Z,54.58
2023-03-24T17:56:06.729Z,53.59
2023-03-24T17:58:36.338Z,53.24
2023-03-24T18:01:15.788Z,53.31
2023-03-24T18:03:57.540Z,53.68
2023-03-24T18:06:30.902Z,53.82
2023-03-24T18:09:07.226Z,54.27
2023-03-24T18:11:47.325Z,54.52
2023-03-24T18:14:45.473Z,55.08
2023-03-24T18:17:15.672Z,55.59
2023-03-24T18:19:54.560Z,56.04
2023-03-24T18:22:25.029Z,56.34
2023-03-24T18:25:19.555Z,56.69
2023-03-24T18:27:55.388Z,56.92
2023-03-24T18:30:35.211Z,56.95
2023-03-24T18:33:11.352Z,57.01
2023-03-24T18:35:49.744Z,56.97
2023-03-24T18:38:24.315Z,57.14
2023-03-24T18:41:10.136Z,57.63
2023-03-24T18:43:41.695Z,58.06
2023-03-24T18:46:23.934Z,58.08
2023-03-24T18:48:52.866Z,58.06
2023-03-24T18:51:27.822Z,58.11
2023-03-24T18:54:03.975Z,58.07
2023-03-24T18:56:36.467Z,58.12
2023-03-24T18:59:07.972Z,58.47
2023-03-24T19:01:36.450Z,58.58
2023-03-24T19:04:10.381Z,58.42
2023-03-24T19:06:46.877Z,58.44
2023-03-24T19:09:26.476Z,58.35
2023-03-24T19:11:55.178Z,58.33
2023-03-24T19:14:26.269Z,58.42
2023-03-24T19:16:55.866Z,58.38
2023-03-24T19:19:27.366Z,58.57
2023-03-24T19:21:59.817Z,58.79
2023-03-24T19:24:29.819Z,58.61
2023-03-24T19:27:07.969Z,58.49
2023-03-24T19:29:37.104Z,58.65
2023-03-24T19:32:07.079Z,58.61
2023-03-24T19:34:38.336Z,58.85
2023-03-24T19:37:26.706Z,59.03
2023-03-24T19:40:01.858Z,59.09
2023-03-24T19:42:33.665Z,59.11
2023-03-24T19:45:02.938Z,59.20
2023-03-24T19:47:40.036Z,59.19
2023-03-24T19:50:31.668Z,59.38
2023-03-24T19:53:00.875Z,59.45
2023-03-24T19:55:33.685Z,59.62
2023-03-24T19:58:05.367Z,59.60
2023-03-24T20:00:37.047Z,59.80
2023-03-24T20:03:12.981Z,59.77
2023-03-24T20:05:45.697Z,60.04
2023-03-24T20:08:18.737Z,60.20
2023-03-24T20:11:04.415Z,60.47
2023-03-24T20:13:40.193Z,60.82
2023-03-24T20:16:24.806Z,61.15
2023-03-24T20:18:58.608Z,61.18
2023-03-24T20:21:31.932Z,61.63
2023-03-24T20:24:03.725Z,61.82
2023-03-24T20:26:38.266Z,61.97
2023-03-24T20:29:11.473Z,62.05
2023-03-24T20:31:49.863Z,62.17
2023-03-24T20:34:21.493Z,62.26
2023-03-24T20:37:09.781Z,62.23
2023-03-24T20:39:46.064Z,62.18
2023-03-24T20:42:16.899Z,62.32
2023-03-24T20:44:48.026Z,62.47
2023-03-24T20:47:20.496Z,62.48
2023-03-24T20:49:56.670Z,62.65
2023-03-24T20:52:32.371Z,62.77
2023-03-24T20:55:18.041Z,62.84
2023-03-24T20:57:47.300Z,62.77
2023-03-24T21:00:21.299Z,63.01
2023-03-24T21:02:52.967Z,62.90
2023-03-24T21:05:24.162Z,62.87
2023-03-24T21:07:55.849Z,62.92
2023-03-24T21:10:29.586Z,63.18
2023-03-24T21:13:01.839Z,63.61
2023-03-24T21:15:31.432Z,63.68
2023-03-24T21:18:00.450Z,63.80
2023-03-24T21:20:31.052Z,63.75
2023-03-24T21:23:08.401Z,63.78
2023-03-24T21:25:39.900Z,63.91
2023-03-24T21:28:18.051Z,64.07
2023-03-24T21:30:54.105Z,64.19
2023-03-24T21:33:27.922Z,64.50
2023-03-24T21:36:04.023Z,64.55
2023-03-24T21:38:46.532Z,64.69
2023-03-24T21:41:38.595Z,64.80
2023-03-24T21:44:16.972Z,64.74
2023-03-24T21:46:47.381Z,64.77
2023-03-24T21:49:21.979Z,64.78
2023-03-24T21:51:56.989Z,64.85
2023-03-24T21:54:34.158Z,64.98
2023-03-24T21:57:08.654Z,65.11
2023-03-24T21:59:48.352Z,65.19
2023-03-24T22:02:27.435Z,65.35
2023-03-24T22:05:10.726Z,65.50
2023-03-24T22:07:54.045Z,65.49
2023-03-24T22:10:29.167Z,65.60
2023-03-24T22:12:58.223Z,65.67
2023-03-24T22:15:32.432Z,65.84
2023-03-24T22:18:06.376Z,65.89
2023-03-24T22:20:39.904Z,65.88
2023-03-24T22:23:11.310Z,66.09
2023-03-24T22:25:45.677Z,66.23
2023-03-24T22:28:24.263Z,66.26
2023-03-24T22:31:15.658Z,66.34
2023-03-24T22:33:47.007Z,66.36
2023-03-24T22:36:23.709Z,66.42
2023-03-24T22:38:54.693Z,66.59
2023-03-24T22:41:31.296Z,66.66
2023-03-24T22:44:07.986Z,66.61
2023-03-24T22:46:45.008Z,66.59
2023-03-24T22:49:14.156Z,66.72
2023-03-24T22:51:44.913Z,66.86
2023-03-24T22:54:23.113Z,66.79
2023-03-24T22:57:02.076Z,66.93
2023-03-24T22:59:39.529Z,67.10
2023-03-24T23:02:12.023Z,67.16
2023-03-24T23:04:50.771Z,67.20
2023-03-24T23:07:27.930Z,67.30
2023-03-24T23:10:01.697Z,67.48
2023-03-24T23:12:39.992Z,67.38
2023-03-24T23:15:13.920Z,67.46
2023-03-24T23:17:45.616Z,67.46
2023-03-24T23:20:17.424Z,67.42
2023-03-24T23:22:57.582Z,67.48
2023-03-24T23:25:31.096Z,67.55
2023-03-24T23:28:06.156Z,67.64
2023-03-24T23:30:44.805Z,67.63
2023-03-24T23:33:25.842Z,67.64
2023-03-24T23:36:09.687Z,67.50
2023-03-24T23:38:44.466Z,67.67
2023-03-24T23:41:21.760Z,67.64
2023-03-24T23:43:57.692Z,67.67
2023-03-24T23:46:43.434Z,67.74
2023-03-24T23:49:21.508Z,67.79
2023-03-24T23:51:58.608Z,67.83
2023-03-24T23:54:34.155Z,67.91
2023-03-24T23:57:02.915Z,67.81
2023-03-24T23:59:36.733Z,67.96
